Ash Fork, AZ (86320)

1:45 AM MST on September 23, 2014 (GMT -0700)
3 mi. due north of Ash Fork AZ | Change Station
CLOSE
Current Station
Personal Weather Station
Location: Ash Fork, AZ
Elevation: 5395 ft
Nearby Weather Stations

Elev 5395 ft 35.27 °N, 112.49 °W | Updated 53 seconds ago

Clear
Clear
50.1 °F
Feels Like 50.1 °F
N
0.0
Wind Variable Wind from NNE
Gusts 0.0 mph

Today
High -- | Low -- °F
--% Chance of Precip.
Yesterday
High -- | Low -- °F
Precip. -- in
6:19 AM 6:25 PM
Waning Crescent, 1% visible
Pressure 29.99 in
Visibility 10.0 miles
Clouds Clear
Dew Point 38 °F
Humidity 63%
Rainfall 0.00 in
Snow Depth Not available.
UV 0 out of 12
Pollen 6.70 out of 12
Air Quality Not available.
Flu Activity Not available.
METAR KPRC 230753Z AUTO 20005KT 10SM CLR 14/04 A3021 RMK AO2 SLP155 T01440039

More Conditions Fewer Conditions

Pressure 29.99 in
Visibility 10.0 miles
Clouds Clear
Dew Point 38 °F
Humidity 63%
Rainfall 0.00 in
Snow Depth Not available.
UV 0 out of 12
Pollen 6.70 out of 12
Air Quality Not available.
Flu Activity Not available.
METAR KPRC 230753Z AUTO 20005KT 10SM CLR 14/04 A3021 RMK AO2 SLP155 T01440039

More Conditions Fewer Conditions

10-Day Weather Forecast

Almanac

Astronomy

Sep. 23, 2014 Rise Set
Actual Time 6:19 AM MST 6:25 PM MST
Civil Twilight 5:54 AM MST 6:51 PM MST
Nautical Twilight 5:24 AM MST 7:20 PM MST
Astronomical Twilight 4:54 AM MST 7:50 PM MST
Moon 5:47 AM MST 6:07 PM MST
Length of Visible Light 12h 57m
Length of Day
12h 06m
Tomorrow will be 2m 12s shorter.
Waning Crescent, 1% of the Moon is Illuminated
Today
Waning Crescent
Sep 24
New
Oct 1
First Quarter
Oct 8
Full
Oct 15
Last Quarter

Today's Extremes

State Highs State Lows

Community

WunderPhotos

Upload Photos

1,755,644 photos uploaded!

Nearby

Snow Depth

Station Depth Elevation
Fry 0 in 7200 ft
Workman Creek 1 in 6900 ft
White Horse Lake 0 in 7180 ft
Snowslide Canyon 0 in 9730 ft
Mormon Mountain 0 in 7500 ft

Earthquake Activity

City Distance Mag. Time & Date
No recent earthquake activity has been reported nearby.
Minimum magnitude displayed is 2.5.

Coastal Water Temperatures

Place Temperature
No Stations Reporting

Nearby Weather Stations